Time;durP1;ratioP1;P1;durP2;ratioP2;P2;SDS_P1;SDS_P2;PMS_P1;PMS_P2;Temp;Humidity;BMP_temperature;BMP_pressure;BME280_temperature;BME280_humidity;BME280_pressure;Samples;Min_cycle;Max_cycle;Signal;HPM_P1;HPM_P2
2022/04/08 00:00:39;;;;;;;;;;;;;;;17.64;42.15;97680.88;4484778;31;34219;-66
2022/04/08 00:03:10;;;;;;;;;;;;;;;17.70;42.17;97696.28;4490416;31;32730;-67
2022/04/08 00:05:39;;;;;;;;;;;;;;;17.81;41.86;97690.25;4473176;32;34191;-66
2022/04/08 00:08:08;;;;;;;;;;;;;;;17.78;41.86;97704.19;4484620;31;33219;-66
2022/04/08 00:10:36;;;;;;;;;;;;;;;17.60;42.48;97714.81;4487122;31;34395;-66
2022/04/08 00:13:05;;;;;;;;;;;;;;;17.72;42.00;97696.06;4481071;32;33379;-66
2022/04/08 00:15:36;;;;;;;;;;;;;;;17.50;42.39;97711.69;4469186;32;32873;-67
2022/04/08 00:18:04;;;;;;;;;;;;;;;17.56;42.24;97710.84;4484673;31;34534;-70
2022/04/08 00:20:32;;;;;;;;;;;;;;;17.59;41.99;97703.16;4484704;31;33793;-67
2022/04/08 00:23:01;;;;;;;;;;;;;;;17.68;41.61;97701.06;4495257;31;33208;-67
2022/04/08 00:25:30;;;;;;;;;;;;;;;17.49;42.23;97691.09;4489091;31;33094;-68
2022/04/08 00:27:58;;;;;;;;;;;;;;;17.59;41.91;97699.59;4484540;31;35080;-67
2022/04/08 00:30:29;;;;;;;;;;;;;;;17.23;42.77;97685.47;4485921;31;34278;-67
2022/04/08 00:32:58;;;;;;;;;;;;;;;17.37;42.61;97690.91;4483970;31;31654;-70
2022/04/08 00:35:25;;;;;;;;;;;;;;;17.48;42.45;97700.25;4484878;31;34122;-68
2022/04/08 00:37:53;;;;;;;;;;;;;;;17.29;43.08;97718.94;4484531;31;34250;-68
2022/04/08 00:40:20;;;;;;;;;;;;;;;17.37;42.54;97716.06;4488742;31;35205;-72
2022/04/08 00:42:49;;;;;;;;;;;;;;;17.26;42.69;97715.84;4490212;31;32901;-66
2022/04/08 00:45:17;;;;;;;;;;;;;;;17.11;43.18;97705.19;4488919;31;32965;-69
2022/04/08 00:47:47;;;;;;;;;;;;;;;17.06;43.30;97694.19;4485227;31;34349;-69
2022/04/08 00:50:15;;;;;;;;;;;;;;;17.11;43.26;97689.84;4489685;31;34541;-73
2022/04/08 00:52:46;;;;;;;;;;;;;;;17.16;43.14;97713.53;4483004;32;34516;-69
2022/04/08 00:55:15;;;;;;;;;;;;;;;16.93;43.88;97719.31;4457906;32;32677;-69
2022/04/08 00:57:43;;;;;;;;;;;;;;;17.02;43.90;97725.38;4483803;32;33051;-68
2022/04/08 01:00:12;;;;;;;;;;;;;;;17.23;43.22;97712.50;4492963;31;34152;-72
2022/04/08 01:02:40;;;;;;;;;;;;;;;17.16;43.36;97708.97;4496414;31;33191;-69
2022/04/08 01:05:09;;;;;;;;;;;;;;;16.61;44.70;97705.47;4489103;31;35838;-69
2022/04/08 01:07:37;;;;;;;;;;;;;;;16.80;44.29;97706.63;4483871;31;34426;-68
2022/04/08 01:10:05;;;;;;;;;;;;;;;17.08;43.24;97716.41;4482768;32;35174;-72
2022/04/08 01:12:36;;;;;;;;;;;;;;;17.02;43.27;97720.81;4482435;32;33386;-69
2022/04/08 01:15:05;;;;;;;;;;;;;;;16.98;43.44;97731.19;4484591;31;34125;-69
2022/04/08 01:17:33;;;;;;;;;;;;;;;16.96;43.23;97730.56;4485871;31;33007;-67
2022/04/08 01:20:01;;;;;;;;;;;;;;;16.86;43.52;97727.41;4496912;31;34419;-71
2022/04/08 01:22:29;;;;;;;;;;;;;;;16.82;43.41;97726.16;4484085;31;33197;-68
2022/04/08 01:25:04;;;;;;;;;;;;;;;16.64;43.72;97734.78;4492729;31;34191;-69
2022/04/08 01:27:32;;;;;;;;;;;;;;;16.64;43.46;97736.66;4492204;31;35485;-66
2022/04/08 01:30:01;;;;;;;;;;;;;;;16.55;43.29;97738.69;4482576;31;34155;-65
2022/04/08 01:32:29;;;;;;;;;;;;;;;16.56;43.12;97748.44;4493989;31;32605;-65
2022/04/08 01:34:58;;;;;;;;;;;;;;;16.06;44.54;97761.28;4484038;32;33959;-64
2022/04/08 01:37:27;;;;;;;;;;;;;;;16.09;44.29;97760.91;4485231;32;34481;-67
2022/04/08 01:39:55;;;;;;;;;;;;;;;15.99;44.83;97785.53;4485348;32;34409;-65
2022/04/08 01:42:24;;;;;;;;;;;;;;;16.26;44.32;97789.22;4485327;31;32379;-65
2022/04/08 01:44:54;;;;;;;;;;;;;;;16.07;44.79;97788.06;4486530;31;32614;-68
2022/04/08 01:47:22;;;;;;;;;;;;;;;15.93;45.48;97794.41;4491467;31;35509;-72
2022/04/08 01:49:51;;;;;;;;;;;;;;;16.13;45.05;97802.62;4494816;31;32672;-70
2022/04/08 01:52:21;;;;;;;;;;;;;;;16.12;45.08;97813.66;4493729;31;31934;-69
2022/04/08 01:54:49;;;;;;;;;;;;;;;16.25;44.97;97814.56;4490253;31;33805;-71
2022/04/08 01:57:22;;;;;;;;;;;;;;;16.28;44.94;97811.47;4487334;31;34316;-70
2022/04/08 01:59:52;;;;;;;;;;;;;;;16.36;44.68;97806.94;4500607;31;32818;-70
2022/04/08 02:02:21;;;;;;;;;;;;;;;16.45;44.38;97808.44;4488934;31;32176;-68
2022/04/08 02:04:49;;;;;;;;;;;;;;;16.25;44.93;97811.03;4494529;31;35055;-69
2022/04/08 02:07:18;;;;;;;;;;;;;;;16.39;44.42;97807.38;4493038;31;34408;-69
2022/04/08 02:09:45;;;;;;;;;;;;;;;16.51;44.24;97819.28;4489800;31;32932;-72
2022/04/08 02:12:13;;;;;;;;;;;;;;;16.23;45.09;97845.47;4491009;31;34532;-70
2022/04/08 02:14:41;;;;;;;;;;;;;;;16.46;44.49;97851.44;4485194;31;35199;-72
2022/04/08 02:17:09;;;;;;;;;;;;;;;16.57;43.90;97851.94;4484536;32;34341;-69
2022/04/08 02:19:38;;;;;;;;;;;;;;;16.29;44.54;97863.59;4484181;31;34135;-70
2022/04/08 02:22:07;;;;;;;;;;;;;;;16.37;44.46;97859.87;4489130;31;32748;-70
2022/04/08 02:24:35;;;;;;;;;;;;;;;16.39;44.53;97844.34;4484354;31;34275;-65
2022/04/08 02:27:06;;;;;;;;;;;;;;;16.34;44.50;97847.66;4482336;31;33709;-66
2022/04/08 02:29:34;;;;;;;;;;;;;;;16.12;44.96;97835.25;4483192;31;34301;-65
2022/04/08 02:32:02;;;;;;;;;;;;;;;15.76;45.85;97818.16;4489139;31;32414;-67
2022/04/08 02:34:36;;;;;;;;;;;;;;;15.16;47.37;97819.41;4481555;31;33915;-67
2022/04/08 02:37:07;;;;;;;;;;;;;;;15.73;45.92;97836.56;4486363;31;34336;-66
2022/04/08 02:39:36;;;;;;;;;;;;;;;15.87;45.47;97834.81;4485860;31;35227;-65
2022/04/08 02:42:05;;;;;;;;;;;;;;;16.03;44.96;97848.88;4479731;32;33425;-65
2022/04/08 02:44:34;;;;;;;;;;;;;;;15.99;45.09;97853.00;4485143;31;34397;-65
2022/04/08 02:47:03;;;;;;;;;;;;;;;16.10;44.76;97856.19;4488865;31;34225;-65
2022/04/08 02:49:32;;;;;;;;;;;;;;;15.84;45.19;97860.31;4483220;31;33735;-65
2022/04/08 02:52:01;;;;;;;;;;;;;;;15.77;45.67;97867.53;4474640;31;35062;-69
2022/04/08 02:54:30;;;;;;;;;;;;;;;15.78;45.74;97869.19;4490146;31;33062;-65
2022/04/08 02:56:59;;;;;;;;;;;;;;;15.89;45.42;97874.06;4492056;31;34285;-67
2022/04/08 02:59:29;;;;;;;;;;;;;;;15.98;45.33;97886.38;4493347;31;34238;-66
2022/04/08 03:01:57;;;;;;;;;;;;;;;16.03;45.22;97902.00;4491174;31;33448;-68
2022/04/08 03:04:27;;;;;;;;;;;;;;;16.12;45.04;97918.91;4496048;31;34133;-70
2022/04/08 03:06:58;;;;;;;;;;;;;;;15.93;45.37;97921.22;4491225;31;34483;-65
2022/04/08 03:09:27;;;;;;;;;;;;;;;15.96;45.46;97915.44;4485766;31;33721;-66
2022/04/08 03:11:59;;;;;;;;;;;;;;;15.67;46.22;97920.97;4485394;31;32939;-66
2022/04/08 03:14:31;;;;;;;;;;;;;;;15.97;45.46;97921.66;4491917;31;33843;-66
2022/04/08 03:17:00;;;;;;;;;;;;;;;15.83;45.67;97923.41;4485296;31;34161;-66
2022/04/08 03:19:28;;;;;;;;;;;;;;;16.11;45.24;97922.59;4490330;31;33312;-69
2022/04/08 03:21:56;;;;;;;;;;;;;;;16.03;45.17;97921.72;4486717;31;33343;-65
2022/04/08 03:24:25;;;;;;;;;;;;;;;16.01;44.95;97925.63;4467908;31;33613;-66
2022/04/08 03:26:54;;;;;;;;;;;;;;;15.48;46.16;97936.69;4484674;31;35380;-66
2022/04/08 03:29:22;;;;;;;;;;;;;;;15.57;45.42;97943.63;4481366;31;33865;-66
2022/04/08 03:31:51;;;;;;;;;;;;;;;15.05;47.00;97947.34;4481470;31;33128;-67
2022/04/08 03:34:20;;;;;;;;;;;;;;;14.31;48.80;97946.41;4490212;31;34260;-66
2022/04/08 03:36:55;;;;;;;;;;;;;;;14.21;49.73;97955.56;4489168;31;35282;-65
2022/04/08 03:39:23;;;;;;;;;;;;;;;14.37;49.46;97968.03;4493249;31;35060;-66
2022/04/08 03:41:51;;;;;;;;;;;;;;;13.98;50.74;97974.41;4483998;31;33263;-70
2022/04/08 03:44:19;;;;;;;;;;;;;;;14.40;50.17;97978.44;4489778;31;34075;-67
2022/04/08 03:46:48;;;;;;;;;;;;;;;14.21;50.64;97984.34;4484740;31;34156;-68
2022/04/08 03:49:17;;;;;;;;;;;;;;;13.86;52.05;97981.22;4482124;31;35287;-67
2022/04/08 03:51:46;;;;;;;;;;;;;;;14.33;50.76;98001.72;4486600;31;33401;-69
2022/04/08 03:54:18;;;;;;;;;;;;;;;14.40;50.92;98012.59;4491401;31;33907;-67
2022/04/08 03:56:46;;;;;;;;;;;;;;;14.40;51.12;98004.53;4486994;31;33215;-67
2022/04/08 03:59:16;;;;;;;;;;;;;;;14.02;52.75;98023.31;4482187;31;32887;-67
2022/04/08 04:01:46;;;;;;;;;;;;;;;14.53;51.58;98020.94;4493115;31;31723;-67
2022/04/08 04:04:16;;;;;;;;;;;;;;;13.93;53.47;98013.63;4489106;31;32985;-68
2022/04/08 04:06:44;;;;;;;;;;;;;;;13.93;54.14;98003.72;4490698;31;34009;-67
2022/04/08 04:09:13;;;;;;;;;;;;;;;14.01;54.19;98010.06;4482283;31;33504;-68
2022/04/08 04:11:42;;;;;;;;;;;;;;;13.62;55.64;98011.81;4489799;31;32570;-67
2022/04/08 04:14:11;;;;;;;;;;;;;;;13.94;55.00;98018.84;4480954;31;33053;-67
2022/04/08 04:16:41;;;;;;;;;;;;;;;13.72;55.75;98023.16;4493757;31;35144;-69
2022/04/08 04:19:09;;;;;;;;;;;;;;;13.75;55.61;98019.28;4482925;31;33051;-66
2022/04/08 04:21:38;;;;;;;;;;;;;;;14.14;54.13;98016.50;4485449;31;34124;-66
2022/04/08 04:24:07;;;;;;;;;;;;;;;14.19;52.72;98027.59;4483930;31;34031;-66
2022/04/08 04:26:38;;;;;;;;;;;;;;;14.14;52.24;98029.13;4484015;31;33111;-66
2022/04/08 04:29:11;;;;;;;;;;;;;;;13.79;53.46;98033.22;4481342;31;33329;-67
2022/04/08 04:31:40;;;;;;;;;;;;;;;14.06;52.93;98027.34;4488899;31;33234;-67
2022/04/08 04:34:11;;;;;;;;;;;;;;;14.33;51.57;98031.34;4480395;31;33872;-65
2022/04/08 04:36:40;;;;;;;;;;;;;;;14.16;51.29;98038.69;4482231;31;34085;-66
2022/04/08 04:39:09;;;;;;;;;;;;;;;14.39;50.30;98040.56;4481171;31;33310;-66
2022/04/08 04:41:37;;;;;;;;;;;;;;;14.50;49.30;98044.66;4483192;31;34539;-65
2022/04/08 04:44:06;;;;;;;;;;;;;;;14.19;49.78;98049.09;4490621;31;34115;-67
2022/04/08 04:46:36;;;;;;;;;;;;;;;14.56;47.94;98046.66;4490664;31;34356;-64
2022/04/08 04:49:05;;;;;;;;;;;;;;;14.42;47.29;98042.87;4489689;31;33894;-64
2022/04/08 04:51:33;;;;;;;;;;;;;;;14.03;46.10;98048.34;4478171;32;34095;-64
2022/04/08 04:54:02;;;;;;;;;;;;;;;13.95;45.61;98062.72;4481156;31;34092;-64
2022/04/08 04:56:29;;;;;;;;;;;;;;;13.56;44.61;98074.31;4483546;31;33265;-64
2022/04/08 04:58:59;;;;;;;;;;;;;;;13.96;42.87;98078.69;4483484;31;33154;-63
2022/04/08 05:01:27;;;;;;;;;;;;;;;14.18;42.72;98086.94;4483414;31;32429;-64
2022/04/08 05:04:01;;;;;;;;;;;;;;;14.16;42.80;98095.22;4491869;31;35300;-66
2022/04/08 05:06:28;;;;;;;;;;;;;;;14.40;41.77;98099.56;4481609;32;34133;-64
2022/04/08 05:08:57;;;;;;;;;;;;;;;14.19;41.86;98091.31;4481394;31;34328;-65
2022/04/08 05:11:28;;;;;;;;;;;;;;;14.59;41.51;98102.84;4485867;31;32503;-65
2022/04/08 05:13:57;;;;;;;;;;;;;;;14.44;40.12;98090.16;4495974;31;32964;-64
2022/04/08 05:16:29;;;;;;;;;;;;;;;14.45;39.47;98089.13;4482317;31;33105;-65
2022/04/08 05:18:58;;;;;;;;;;;;;;;14.34;41.44;98096.75;4487401;31;34718;-65
2022/04/08 05:21:29;;;;;;;;;;;;;;;13.95;41.97;98094.97;4484377;31;31322;-65
2022/04/08 05:24:03;;;;;;;;;;;;;;;14.37;40.38;98104.47;4482913;32;33207;-64
2022/04/08 05:26:32;;;;;;;;;;;;;;;13.94;40.97;98120.22;4480823;32;35480;-65
2022/04/08 05:29:03;;;;;;;;;;;;;;;14.19;39.70;98113.69;4487075;31;32960;-65
2022/04/08 05:31:32;;;;;;;;;;;;;;;14.34;39.80;98123.66;4486813;31;33547;-64
2022/04/08 05:34:05;;;;;;;;;;;;;;;14.24;39.62;98118.53;4484891;31;32990;-67
2022/04/08 05:36:39;;;;;;;;;;;;;;;14.73;37.31;98125.44;4481729;31;33179;-66
2022/04/08 05:39:10;;;;;;;;;;;;;;;14.20;37.98;98134.19;4488961;31;34054;-65
2022/04/08 05:41:40;;;;;;;;;;;;;;;14.49;38.01;98131.84;4483370;31;34206;-66
2022/04/08 05:44:11;;;;;;;;;;;;;;;14.38;38.43;98143.81;4489745;31;35188;-65
2022/04/08 05:46:40;;;;;;;;;;;;;;;14.02;43.63;98149.75;4491763;31;34181;-65
2022/04/08 05:49:09;;;;;;;;;;;;;;;14.09;41.93;98141.81;4484858;31;34061;-66
2022/04/08 05:51:40;;;;;;;;;;;;;;;13.74;42.61;98139.47;4488346;31;33632;-64
2022/04/08 05:54:10;;;;;;;;;;;;;;;13.54;41.43;98156.97;4488037;31;33742;-64
2022/04/08 05:56:42;;;;;;;;;;;;;;;13.43;40.17;98162.72;4481424;32;32080;-65
2022/04/08 05:59:11;;;;;;;;;;;;;;;13.95;38.44;98159.53;4487025;31;34107;-64
2022/04/08 06:01:40;;;;;;;;;;;;;;;14.30;38.92;98173.50;4487640;31;32343;-64
2022/04/08 06:04:09;;;;;;;;;;;;;;;14.31;38.21;98180.53;4481843;32;33022;-64
2022/04/08 06:06:42;;;;;;;;;;;;;;;14.39;37.98;98189.41;4481586;32;34748;-64
2022/04/08 06:09:14;;;;;;;;;;;;;;;14.70;37.20;98190.44;4481245;32;34408;-65
2022/04/08 06:11:46;;;;;;;;;;;;;;;13.77;37.34;98210.00;4483623;31;33596;-64
2022/04/08 06:14:17;;;;;;;;;;;;;;;13.64;37.07;98226.69;4479530;32;34081;-64
2022/04/08 06:16:46;;;;;;;;;;;;;;;13.71;36.92;98239.28;4486429;31;32915;-64
2022/04/08 06:19:16;;;;;;;;;;;;;;;13.68;36.93;98238.78;4483507;31;34144;-64
2022/04/08 06:21:49;;;;;;;;;;;;;;;14.10;36.38;98233.13;4484259;31;33156;-64
2022/04/08 06:24:27;;;;;;;;;;;;;;;14.15;36.71;98228.03;4490679;31;33292;-64
2022/04/08 06:26:58;;;;;;;;;;;;;;;14.43;35.99;98217.66;4497849;31;34504;-63
2022/04/08 06:29:26;;;;;;;;;;;;;;;14.48;36.00;98222.53;4484133;31;33180;-68
2022/04/08 06:31:54;;;;;;;;;;;;;;;14.51;36.67;98232.97;4485587;31;33606;-68
2022/04/08 06:34:23;;;;;;;;;;;;;;;14.50;37.06;98231.25;4485137;31;34345;-71
2022/04/08 06:36:51;;;;;;;;;;;;;;;15.17;35.00;98216.34;4482921;31;34037;-67
2022/04/08 06:39:29;;;;;;;;;;;;;;;15.38;34.77;98224.59;4493200;31;34429;-66
2022/04/08 06:42:04;;;;;;;;;;;;;;;15.21;33.83;98221.19;4495144;31;32366;-66
2022/04/08 06:44:37;;;;;;;;;;;;;;;15.25;34.19;98219.84;4492242;31;32933;-67
2022/04/08 06:47:12;;;;;;;;;;;;;;;15.55;33.84;98226.13;4494683;31;34368;-67
2022/04/08 06:49:46;;;;;;;;;;;;;;;15.34;33.69;98223.28;4473078;31;33520;-67
2022/04/08 06:52:18;;;;;;;;;;;;;;;15.70;33.50;98228.88;4474841;32;31814;-66
2022/04/08 06:54:54;;;;;;;;;;;;;;;15.63;33.05;98229.75;4482227;32;33800;-69
2022/04/08 06:57:28;;;;;;;;;;;;;;;15.86;32.66;98224.31;4491689;31;33487;-66
2022/04/08 07:00:13;;;;;;;;;;;;;;;15.52;32.45;98233.75;4493301;31;34356;-66
2022/04/08 07:02:50;;;;;;;;;;;;;;;15.72;32.33;98236.78;4485976;31;32116;-66
2022/04/08 07:05:28;;;;;;;;;;;;;;;15.45;32.24;98225.53;4496488;31;34077;-67
2022/04/08 07:08:05;;;;;;;;;;;;;;;15.24;33.34;98228.09;4490104;31;33998;-67
2022/04/08 07:10:46;;;;;;;;;;;;;;;15.69;33.71;98229.88;4485945;31;34143;-67
2022/04/08 07:13:19;;;;;;;;;;;;;;;14.95;34.52;98221.56;4485302;31;32451;-67
2022/04/08 07:15:53;;;;;;;;;;;;;;;14.92;34.53;98227.31;4485360;31;34186;-67
2022/04/08 07:18:34;;;;;;;;;;;;;;;15.37;33.54;98247.16;4484614;31;32785;-66
2022/04/08 07:21:17;;;;;;;;;;;;;;;15.79;32.84;98253.88;4487394;31;34116;-71
2022/04/08 07:23:57;;;;;;;;;;;;;;;15.78;32.93;98254.91;4494239;31;33128;-67
2022/04/08 07:26:37;;;;;;;;;;;;;;;15.79;32.40;98240.41;4484273;31;34623;-67
2022/04/08 07:29:13;;;;;;;;;;;;;;;15.98;32.78;98244.41;4487089;31;32888;-66
2022/04/08 07:31:52;;;;;;;;;;;;;;;16.19;33.72;98258.00;4499202;31;33037;-66
2022/04/08 07:34:29;;;;;;;;;;;;;;;16.27;33.26;98260.59;4490158;31;32458;-67
2022/04/08 07:37:08;;;;;;;;;;;;;;;16.00;31.88;98243.22;4473240;31;33611;-67
2022/04/08 07:39:47;;;;;;;;;;;;;;;16.19;31.57;98249.09;4498827;31;34193;-67
2022/04/08 07:42:32;;;;;;;;;;;;;;;15.70;31.25;98258.56;4493545;31;34174;-71
2022/04/08 07:45:13;;;;;;;;;;;;;;;15.93;32.50;98254.94;4486933;31;34333;-66
2022/04/08 07:47:49;;;;;;;;;;;;;;;16.17;30.96;98261.91;4485572;31;33050;-66
2022/04/08 07:50:25;;;;;;;;;;;;;;;16.09;31.80;98262.84;4489969;31;35238;-71
2022/04/08 07:53:07;;;;;;;;;;;;;;;15.91;31.51;98247.03;4492868;31;33708;-67
2022/04/08 07:55:49;;;;;;;;;;;;;;;15.86;31.32;98248.59;4486355;31;32031;-66
2022/04/08 07:58:33;;;;;;;;;;;;;;;15.75;30.69;98241.78;4487863;31;33020;-67
2022/04/08 08:01:12;;;;;;;;;;;;;;;15.61;30.89;98244.25;4492967;31;34339;-67
2022/04/08 08:03:59;;;;;;;;;;;;;;;15.50;29.94;98220.41;4489326;31;33008;-66
2022/04/08 08:06:37;;;;;;;;;;;;;;;15.02;31.03;98241.37;4495107;31;32026;-68
2022/04/08 08:09:14;;;;;;;;;;;;;;;15.53;29.84;98249.72;4492698;31;33404;-68
2022/04/08 08:11:57;;;;;;;;;;;;;;;15.15;30.18;98240.78;4483643;32;33167;-70
2022/04/08 08:14:39;;;;;;;;;;;;;;;15.35;29.28;98247.37;4483566;31;35188;-66
2022/04/08 08:17:16;;;;;;;;;;;;;;;15.72;28.82;98259.19;4490952;31;33058;-68
2022/04/08 08:19:57;;;;;;;;;;;;;;;15.40;28.53;98256.75;4492182;31;33942;-69
2022/04/08 08:22:34;;;;;;;;;;;;;;;15.65;29.23;98282.50;4493661;31;34056;-67
2022/04/08 08:25:12;;;;;;;;;;;;;;;16.14;28.88;98298.22;4490115;31;33171;-67
2022/04/08 08:28:01;;;;;;;;;;;;;;;16.50;28.78;98292.06;4495280;31;32253;-69
2022/04/08 08:30:45;;;;;;;;;;;;;;;15.98;28.17;98306.47;4493638;31;32946;-67
2022/04/08 08:33:24;;;;;;;;;;;;;;;16.20;28.53;98305.56;4484320;31;34425;-69
2022/04/08 08:36:09;;;;;;;;;;;;;;;15.89;28.69;98321.06;4495664;31;33238;-67
2022/04/08 08:38:48;;;;;;;;;;;;;;;15.69;28.99;98320.75;4485776;31;33346;-68
2022/04/08 08:41:21;;;;;;;;;;;;;;;15.75;28.54;98315.47;4493027;31;34020;-67
2022/04/08 08:44:09;;;;;;;;;;;;;;;15.47;29.21;98328.62;4486388;31;33077;-67
2022/04/08 08:46:45;;;;;;;;;;;;;;;16.06;28.69;98338.78;4494982;31;32889;-67
2022/04/08 08:49:24;;;;;;;;;;;;;;;16.03;28.32;98328.38;4473674;31;32184;-67
2022/04/08 08:52:07;;;;;;;;;;;;;;;15.50;29.67;98347.16;4477660;31;33817;-68
2022/04/08 08:54:47;;;;;;;;;;;;;;;15.36;29.58;98332.59;4489173;31;34235;-67
2022/04/08 08:57:26;;;;;;;;;;;;;;;15.89;28.79;98339.97;4485726;31;32708;-64
2022/04/08 09:00:20;;;;;;;;;;;;;;;15.85;28.58;98358.38;4483095;32;34218;-66
2022/04/08 09:03:00;;;;;;;;;;;;;;;15.64;29.20;98345.56;4491921;31;33874;-69
2022/04/08 09:05:40;;;;;;;;;;;;;;;16.36;27.71;98353.16;4496054;31;33200;-66
2022/04/08 09:08:14;;;;;;;;;;;;;;;16.34;27.74;98349.81;4483888;32;33127;-68
2022/04/08 09:10:52;;;;;;;;;;;;;;;16.80;26.85;98338.00;4486512;31;32161;-67
2022/04/08 09:13:27;;;;;;;;;;;;;;;17.14;26.66;98340.03;4492233;31;32938;-66
2022/04/08 09:16:09;;;;;;;;;;;;;;;17.16;26.69;98346.09;4491343;31;34154;-66
2022/04/08 09:18:50;;;;;;;;;;;;;;;17.37;25.76;98346.16;4491762;31;33378;-67
2022/04/08 09:21:34;;;;;;;;;;;;;;;17.11;25.88;98337.72;4483594;31;32304;-66
2022/04/08 09:24:16;;;;;;;;;;;;;;;16.80;25.46;98355.03;4487609;31;34001;-66
2022/04/08 09:26:57;;;;;;;;;;;;;;;16.31;25.85;98369.09;4480462;31;34287;-70
2022/04/08 09:29:32;;;;;;;;;;;;;;;17.46;26.39;98382.84;4484861;31;32846;-64
2022/04/08 09:32:32;;;;;;;;;;;;;;;17.47;25.31;98378.28;4475603;32;33452;-64
2022/04/08 09:35:04;;;;;;;;;;;;;;;18.50;26.28;98386.91;4495937;31;32985;-64
2022/04/08 09:37:36;;;;;;;;;;;;;;;18.83;23.58;98408.78;4483814;31;32046;-65
2022/04/08 09:40:09;;;;;;;;;;;;;;;18.67;22.97;98382.81;4491721;31;34313;-66
2022/04/08 09:42:52;;;;;;;;;;;;;;;18.49;22.85;98393.31;4486378;31;33285;-64
2022/04/08 09:45:30;;;;;;;;;;;;;;;18.21;23.21;98404.19;4481335;31;32824;-65
2022/04/08 09:48:05;;;;;;;;;;;;;;;18.57;22.73;98391.31;4485210;31;34084;-65
2022/04/08 09:50:42;;;;;;;;;;;;;;;18.96;23.24;98389.06;4499791;31;33883;-64
2022/04/08 09:53:15;;;;;;;;;;;;;;;19.53;22.75;98391.34;4493392;31;31848;-65
2022/04/08 09:55:50;;;;;;;;;;;;;;;19.34;22.66;98388.59;4477355;31;35325;-65
2022/04/08 09:58:20;;;;;;;;;;;;;;;20.21;21.63;98374.94;4469926;32;33646;-65
2022/04/08 10:00:56;;;;;;;;;;;;;;;20.13;22.14;98393.34;4476535;32;34321;-64
2022/04/08 10:03:37;;;;;;;;;;;;;;;20.00;22.75;98392.28;4491606;31;33523;-65
2022/04/08 10:06:19;;;;;;;;;;;;;;;19.73;22.14;98388.69;4474244;31;32905;-64
2022/04/08 10:09:02;;;;;;;;;;;;;;;20.22;22.04;98392.06;4489774;31;32873;-64
2022/04/08 10:11:47;;;;;;;;;;;;;;;20.53;22.29;98380.56;4473284;31;33095;-65
2022/04/08 10:14:38;;;;;;;;;;;;;;;20.57;21.95;98406.28;4489021;31;31476;-64
2022/04/08 10:17:11;;;;;;;;;;;;;;;20.45;21.24;98400.63;4489189;31;32928;-68
2022/04/08 10:19:48;;;;;;;;;;;;;;;20.18;22.06;98397.09;4489602;31;33060;-67
2022/04/08 10:22:30;;;;;;;;;;;;;;;20.59;21.46;98400.66;4487844;31;35036;-67
2022/04/08 10:25:02;;;;;;;;;;;;;;;20.98;21.48;98409.75;4485192;31;32124;-66
2022/04/08 10:27:38;;;;;;;;;;;;;;;20.42;21.21;98406.50;4487911;31;34203;-64
2022/04/08 10:30:12;;;;;;;;;;;;;;;20.20;21.08;98408.59;4485178;31;33426;-65
2022/04/08 10:32:44;;;;;;;;;;;;;;;20.78;21.50;98410.66;4489673;31;32948;-64
2022/04/08 10:35:18;;;;;;;;;;;;;;;20.53;21.53;98406.94;4483908;32;33514;-66
2022/04/08 10:38:15;;;;;;;;;;;;;;;20.30;21.79;98410.88;4489891;31;34913;-66
2022/04/08 10:40:56;;;;;;;;;;;;;;;20.38;22.14;98405.22;4486128;31;32999;-65
2022/04/08 10:43:27;;;;;;;;;;;;;;;20.98;20.82;98402.44;4488601;31;32648;-65
2022/04/08 10:46:05;;;;;;;;;;;;;;;20.42;20.55;98403.78;4488129;31;34267;-65
2022/04/08 10:48:41;;;;;;;;;;;;;;;20.06;22.28;98404.19;4488952;31;33001;-67
2022/04/08 10:51:13;;;;;;;;;;;;;;;20.80;21.20;98394.97;4493052;31;33099;-65
2022/04/08 10:53:42;;;;;;;;;;;;;;;20.45;21.48;98403.34;4490741;31;33437;-65
2022/04/08 10:56:20;;;;;;;;;;;;;;;20.69;21.13;98399.16;4492648;31;32279;-65
2022/04/08 10:58:53;;;;;;;;;;;;;;;19.77;21.76;98397.25;4487261;31;34135;-65
2022/04/08 11:01:25;;;;;;;;;;;;;;;20.37;22.09;98389.97;4473791;31;33507;-65
2022/04/08 11:03:54;;;;;;;;;;;;;;;20.38;22.02;98393.53;4489379;31;35528;-68
2022/04/08 11:06:33;;;;;;;;;;;;;;;20.39;22.33;98397.94;4487777;31;32378;-67
2022/04/08 11:09:18;;;;;;;;;;;;;;;20.07;22.80;98405.88;4490139;31;33653;-70
2022/04/08 11:12:00;;;;;;;;;;;;;;;20.27;23.09;98397.72;4494654;31;34116;-65
2022/04/08 11:14:33;;;;;;;;;;;;;;;20.34;22.95;98395.00;4492782;31;32889;-67
2022/04/08 11:17:07;;;;;;;;;;;;;;;20.14;23.58;98400.44;4484958;31;33076;-64
2022/04/08 11:19:38;;;;;;;;;;;;;;;19.76;24.27;98410.00;4487086;31;33998;-64
2022/04/08 11:22:13;;;;;;;;;;;;;;;19.76;23.65;98414.59;4471966;31;33831;-65
2022/04/08 11:24:50;;;;;;;;;;;;;;;19.15;24.60;98422.72;4494450;31;33683;-65
2022/04/08 11:27:28;;;;;;;;;;;;;;;19.57;24.33;98432.47;4481703;31;33693;-64
2022/04/08 11:30:09;;;;;;;;;;;;;;;19.77;23.88;98419.84;4482572;31;33065;-64
2022/04/08 11:32:45;;;;;;;;;;;;;;;19.87;24.71;98415.84;4485852;31;34476;-67
2022/04/08 11:35:22;;;;;;;;;;;;;;;19.95;25.45;98412.97;4474595;31;34167;-65
2022/04/08 11:37:55;;;;;;;;;;;;;;;19.37;25.57;98421.56;4481114;31;31941;-64
2022/04/08 11:40:34;;;;;;;;;;;;;;;19.71;24.82;98417.09;4492206;31;33458;-66
2022/04/08 11:43:12;;;;;;;;;;;;;;;19.38;27.09;98417.81;4490549;31;33277;-65
2022/04/08 11:45:48;;;;;;;;;;;;;;;19.43;25.23;98415.31;4469780;31;33178;-65
2022/04/08 11:48:18;;;;;;;;;;;;;;;19.84;25.06;98416.28;4484683;31;32082;-65
2022/04/08 11:50:53;;;;;;;;;;;;;;;20.08;25.97;98404.81;4484449;31;34168;-65
2022/04/08 11:53:24;;;;;;;;;;;;;;;19.86;25.25;98406.06;4487452;31;33329;-65
2022/04/08 11:55:52;;;;;;;;;;;;;;;19.60;25.67;98402.22;4482324;31;35073;-65
2022/04/08 11:58:24;;;;;;;;;;;;;;;19.53;26.68;98404.91;4485431;31;33368;-70
2022/04/08 12:00:56;;;;;;;;;;;;;;;20.09;26.35;98386.63;4484255;31;34186;-65
2022/04/08 12:03:27;;;;;;;;;;;;;;;19.78;26.37;98399.78;4487562;31;34691;-68
2022/04/08 12:06:03;;;;;;;;;;;;;;;20.10;26.36;98407.34;4482698;31;34706;-69
2022/04/08 12:08:41;;;;;;;;;;;;;;;19.92;26.92;98388.94;4494109;31;32576;-64
2022/04/08 12:11:14;;;;;;;;;;;;;;;20.22;27.08;98392.06;4474660;31;35432;-64
2022/04/08 12:13:46;;;;;;;;;;;;;;;20.51;26.92;98388.09;4474605;32;34536;-65
2022/04/08 12:16:18;;;;;;;;;;;;;;;20.44;26.71;98381.81;4471466;32;33896;-65
2022/04/08 12:18:52;;;;;;;;;;;;;;;19.67;26.83;98366.97;4467777;32;32012;-64
2022/04/08 12:21:24;;;;;;;;;;;;;;;20.59;26.40;98368.88;4479905;31;33012;-64
2022/04/08 12:23:58;;;;;;;;;;;;;;;20.08;27.44;98363.25;4484359;31;34132;-64
2022/04/08 12:26:27;;;;;;;;;;;;;;;19.58;27.74;98370.87;4481374;31;34050;-67
2022/04/08 12:29:08;;;;;;;;;;;;;;;19.61;27.48;98352.31;4481853;31;32106;-66
2022/04/08 12:31:52;;;;;;;;;;;;;;;19.38;28.71;98358.12;4469718;31;32590;-65
2022/04/08 12:34:21;;;;;;;;;;;;;;;18.94;29.02;98361.28;4487481;31;34680;-70
2022/04/08 12:36:49;;;;;;;;;;;;;;;18.16;29.85;98358.72;4483995;31;33687;-64
2022/04/08 12:39:16;;;;;;;;;;;;;;;19.13;29.49;98348.84;4483849;31;33454;-64
2022/04/08 12:41:45;;;;;;;;;;;;;;;19.48;28.90;98346.87;4479366;32;33975;-64
2022/04/08 12:44:14;;;;;;;;;;;;;;;19.14;29.34;98337.81;4483546;31;34357;-65
2022/04/08 12:46:41;;;;;;;;;;;;;;;18.63;30.10;98319.22;4495530;31;34241;-67
2022/04/08 12:49:09;;;;;;;;;;;;;;;19.71;28.67;98303.94;4483260;31;32345;-65
2022/04/08 12:51:37;;;;;;;;;;;;;;;19.72;29.02;98321.06;4490549;31;33153;-67
2022/04/08 12:54:04;;;;;;;;;;;;;;;19.47;29.59;98327.03;4459992;31;34315;-65
2022/04/08 12:56:32;;;;;;;;;;;;;;;18.95;29.98;98330.44;4482151;31;33069;-64
2022/04/08 12:59:01;;;;;;;;;;;;;;;19.14;29.41;98326.97;4469586;32;33318;-65
2022/04/08 13:01:30;;;;;;;;;;;;;;;19.31;29.66;98333.69;4479549;32;34132;-65
2022/04/08 13:03:58;;;;;;;;;;;;;;;19.73;28.82;98326.25;4486347;31;34498;-67
2022/04/08 13:06:30;;;;;;;;;;;;;;;19.08;29.39;98325.91;4481108;31;33291;-69
2022/04/08 13:08:59;;;;;;;;;;;;;;;19.12;29.52;98326.31;4485584;31;31877;-67
2022/04/08 13:11:27;;;;;;;;;;;;;;;18.74;29.80;98324.09;4469285;31;32733;-64
2022/04/08 13:13:56;;;;;;;;;;;;;;;19.11;29.27;98305.69;4470019;31;36062;-65
2022/04/08 13:16:24;;;;;;;;;;;;;;;18.48;30.66;98302.25;4490675;31;32886;-65